Time;durP1;ratioP1;P1;durP2;ratioP2;P2;SDS_P1;SDS_P2;PMS_P1;PMS_P2;Temp;Humidity;BMP_temperature;BMP_pressure;BME280_temperature;BME280_humidity;BME280_pressure;Samples;Min_cycle;Max_cycle;Signal;HPM_P1;HPM_P2
2022/04/17 00:01:47;;;;;;;4.60;4.30;;;4.90;99.90;;;;;;6272482;28;20237;-57
2022/04/17 00:04:52;;;;;;;4.80;4.70;;;5.20;99.90;;;;;;6273948;28;20629;-54
2022/04/17 00:07:55;;;;;;;5.20;4.73;;;4.90;99.90;;;;;;6283664;28;20286;-58
2022/04/17 00:10:58;;;;;;;4.53;4.33;;;5.00;99.90;;;;;;6282615;28;20314;-56
2022/04/17 00:14:02;;;;;;;4.60;4.40;;;5.10;99.90;;;;;;6275358;28;20538;-56
2022/04/17 00:17:05;;;;;;;4.40;4.20;;;5.10;99.90;;;;;;6257591;28;20516;-56
2022/04/17 00:20:09;;;;;;;4.83;4.67;;;4.80;99.90;;;;;;6257314;28;20535;-57
2022/04/17 00:23:12;;;;;;;4.80;4.60;;;5.10;99.90;;;;;;6257271;28;20444;-57
2022/04/17 00:26:15;;;;;;;4.80;4.60;;;4.80;99.90;;;;;;6257815;28;20234;-56
2022/04/17 00:29:19;;;;;;;4.80;4.70;;;4.80;99.90;;;;;;6257114;28;20956;-56
2022/04/17 00:32:22;;;;;;;4.70;4.53;;;5.00;99.90;;;;;;6259111;28;20238;-56
2022/04/17 00:35:24;;;;;;;4.50;4.40;;;4.90;99.90;;;;;;6278379;28;20295;-55
2022/04/17 00:38:27;;;;;;;4.50;4.40;;;4.90;99.90;;;;;;6275094;28;20233;-56
2022/04/17 00:41:30;;;;;;;5.57;5.10;;;4.90;99.90;;;;;;6279504;28;20785;-56
2022/04/17 00:44:35;;;;;;;5.20;4.90;;;5.10;99.90;;;;;;6271637;28;20233;-55
2022/04/17 00:47:38;;;;;;;5.10;4.90;;;5.10;99.90;;;;;;6262337;28;20511;-57
2022/04/17 00:50:41;;;;;;;4.90;4.70;;;4.80;99.90;;;;;;6261962;28;20268;-55
2022/04/17 00:53:47;;;;;;;5.13;4.93;;;4.90;99.90;;;;;;6261425;28;20785;-57
2022/04/17 00:56:50;;;;;;;4.63;4.43;;;5.00;99.90;;;;;;6261764;28;20333;-57
2022/04/17 00:59:57;;;;;;;5.10;4.83;;;5.00;99.90;;;;;;6261505;28;20233;-56
2022/04/17 01:03:00;;;;;;;5.60;5.23;;;4.90;99.90;;;;;;6268105;28;20476;-57
2022/04/17 01:06:02;;;;;;;5.60;5.20;;;4.70;99.90;;;;;;6273252;28;20275;-56
2022/04/17 01:09:06;;;;;;;4.63;4.43;;;4.90;99.90;;;;;;6280277;28;20229;-56
2022/04/17 01:12:10;;;;;;;4.97;4.67;;;4.90;99.90;;;;;;6285298;28;20371;-55
2022/04/17 01:15:15;;;;;;;5.00;4.70;;;4.70;99.90;;;;;;6273986;28;20246;-57
2022/04/17 01:18:17;;;;;;;5.00;4.80;;;4.70;99.90;;;;;;6261358;28;20249;-56
2022/04/17 01:21:21;;;;;;;5.00;4.80;;;4.60;99.90;;;;;;6262160;28;20471;-56
2022/04/17 01:27:45;;;;;;;5.17;4.90;;;4.60;99.90;;;;;;6260260;28;20286;-56
2022/04/17 01:30:52;;;;;;;5.33;5.10;;;4.50;99.90;;;;;;6260049;28;20269;-55
2022/04/17 01:33:55;;;;;;;5.37;5.17;;;4.50;99.90;;;;;;6269867;28;20745;-57
2022/04/17 01:37:00;;;;;;;6.00;5.67;;;4.60;99.90;;;;;;6270819;28;20388;-55
2022/04/17 01:40:04;;;;;;;5.00;4.70;;;4.60;99.90;;;;;;6282407;28;20233;-56
2022/04/17 01:43:08;;;;;;;5.43;5.13;;;4.60;99.90;;;;;;6280750;28;20279;-56
2022/04/17 01:46:11;;;;;;;5.53;5.23;;;4.60;99.90;;;;;;6285679;28;20308;-56
2022/04/17 01:49:15;;;;;;;5.40;5.13;;;4.70;99.90;;;;;;6284248;28;20233;-56
2022/04/17 01:52:19;;;;;;;5.10;4.90;;;4.50;99.90;;;;;;6270471;28;20246;-57
2022/04/17 01:55:22;;;;;;;5.33;5.13;;;4.60;99.90;;;;;;6259365;28;20320;-57
2022/04/17 01:58:24;;;;;;;5.47;5.17;;;4.50;99.90;;;;;;6259636;28;20384;-57
2022/04/17 02:01:27;;;;;;;5.27;4.97;;;4.30;99.90;;;;;;6259765;28;20457;-58
2022/04/17 02:04:35;;;;;;;5.40;5.20;;;4.60;99.90;;;;;;6261007;28;20615;-57
2022/04/17 02:07:39;;;;;;;5.97;5.67;;;4.40;99.90;;;;;;6285812;28;20720;-57
2022/04/17 02:10:42;;;;;;;5.47;5.27;;;4.40;99.90;;;;;;6275786;28;20720;-56
2022/04/17 02:13:45;;;;;;;5.60;5.40;;;4.50;99.90;;;;;;6281919;28;20222;-57
2022/04/17 02:16:49;;;;;;;5.33;5.10;;;4.40;99.90;;;;;;6284388;28;20241;-57
2022/04/17 02:19:52;;;;;;;5.73;5.30;;;4.30;99.90;;;;;;6280376;28;20240;-55
2022/04/17 02:22:56;;;;;;;5.17;4.97;;;4.20;99.90;;;;;;6260019;28;20356;-55
2022/04/17 02:26:00;;;;;;;5.13;4.93;;;4.30;99.90;;;;;;6264051;28;20318;-55
2022/04/17 02:29:03;;;;;;;6.33;5.87;;;4.50;99.90;;;;;;6273851;28;20233;-59
2022/04/17 02:32:06;;;;;;;5.90;5.43;;;4.30;99.90;;;;;;6259469;28;20703;-55
2022/04/17 02:35:10;;;;;;;5.57;5.27;;;4.20;99.90;;;;;;6275176;28;20619;-56
2022/04/17 02:38:14;;;;;;;5.57;5.27;;;4.10;99.90;;;;;;6275564;28;20446;-57
2022/04/17 02:41:17;;;;;;;5.50;5.37;;;4.00;99.90;;;;;;6268299;28;20347;-56
2022/04/17 02:44:20;;;;;;;5.20;4.90;;;4.40;99.90;;;;;;6283344;28;20241;-56
2022/04/17 02:50:43;;;;;;;5.40;5.20;;;4.30;99.90;;;;;;6258391;28;20313;-56
2022/04/17 02:53:47;;;;;;;5.77;5.50;;;4.40;99.90;;;;;;6258067;28;20537;-57
2022/04/17 02:56:50;;;;;;;5.50;5.27;;;4.00;99.90;;;;;;6258037;28;20335;-56
2022/04/17 02:59:53;;;;;;;5.53;5.33;;;4.20;99.90;;;;;;6256842;28;20238;-56
2022/04/17 03:06:16;;;;;;;5.60;5.30;;;4.10;99.90;;;;;;6274467;28;20237;-56
2022/04/17 03:09:45;;;;;;;5.53;5.33;;;4.00;99.90;;;;;;6279401;28;20233;-57
2022/04/17 03:12:48;;;;;;;5.20;5.00;;;3.90;99.90;;;;;;6270811;28;20322;-56
2022/04/17 03:15:51;;;;;;;5.33;5.00;;;3.90;99.90;;;;;;6282040;28;20714;-57
2022/04/17 03:18:54;;;;;;;5.60;5.40;;;3.80;99.90;;;;;;6257884;28;20319;-57
2022/04/17 03:21:57;;;;;;;5.70;5.50;;;3.90;99.90;;;;;;6258212;28;20234;-56
2022/04/17 03:25:02;;;;;;;5.77;5.43;;;3.90;99.90;;;;;;6257992;28;20372;-55
2022/04/17 03:28:05;;;;;;;5.27;5.07;;;3.80;99.90;;;;;;6257231;28;20237;-57
2022/04/17 03:31:08;;;;;;;5.87;5.63;;;3.90;99.90;;;;;;6257843;28;20237;-57
2022/04/17 03:34:12;;;;;;;6.67;6.37;;;4.00;99.90;;;;;;6271313;28;20228;-57
2022/04/17 03:37:15;;;;;;;6.27;5.97;;;3.80;99.90;;;;;;6273390;28;20383;-55
2022/04/17 03:40:19;;;;;;;6.43;6.13;;;3.90;99.90;;;;;;6270535;28;20328;-56
2022/04/17 03:43:23;;;;;;;6.60;6.10;;;3.70;99.90;;;;;;6284883;28;20380;-56
2022/04/17 03:46:26;;;;;;;6.47;6.07;;;3.90;99.90;;;;;;6275311;28;20324;-55
2022/04/17 03:49:29;;;;;;;6.47;6.17;;;3.90;99.90;;;;;;6270040;28;20299;-57
2022/04/17 03:52:39;;;;;;;6.33;6.00;;;3.90;99.90;;;;;;6281471;28;20515;-57
2022/04/17 03:55:43;;;;;;;6.33;6.03;;;4.00;99.90;;;;;;6281045;28;20240;-59
2022/04/17 03:58:45;;;;;;;6.60;6.30;;;3.70;99.90;;;;;;6273622;28;20320;-56
2022/04/17 04:01:48;;;;;;;6.13;5.73;;;3.80;99.90;;;;;;6281081;28;20240;-56
2022/04/17 04:04:51;;;;;;;5.87;5.47;;;3.70;99.90;;;;;;6278259;28;20237;-55
2022/04/17 04:07:54;;;;;;;5.73;5.43;;;3.90;99.90;;;;;;6280285;28;20534;-56
2022/04/17 04:10:58;;;;;;;5.97;5.63;;;4.00;99.90;;;;;;6280317;28;20249;-55
2022/04/17 04:14:03;;;;;;;6.07;5.70;;;3.90;99.90;;;;;;6285054;28;20308;-57
2022/04/17 04:17:06;;;;;;;5.40;5.20;;;3.90;99.90;;;;;;6281223;28;20798;-57
2022/04/17 04:20:10;;;;;;;5.57;5.27;;;4.10;99.90;;;;;;6280324;28;20729;-56
2022/04/17 04:23:13;;;;;;;5.00;4.80;;;4.10;99.90;;;;;;6280882;28;20303;-57
2022/04/17 04:26:17;;;;;;;5.93;5.53;;;4.20;99.90;;;;;;6271244;28;20710;-56
2022/04/17 04:29:19;;;;;;;5.60;5.33;;;4.20;99.90;;;;;;6279101;28;20263;-56
2022/04/17 04:32:21;;;;;;;5.57;5.30;;;4.00;99.90;;;;;;6281217;28;20479;-55
2022/04/17 04:35:26;;;;;;;6.10;5.80;;;4.10;99.90;;;;;;6281020;28;20294;-56
2022/04/17 04:38:29;;;;;;;5.30;5.10;;;4.20;99.90;;;;;;6279789;28;20247;-55
2022/04/17 04:41:34;;;;;;;5.77;5.47;;;4.00;99.90;;;;;;6281701;28;20290;-57
2022/04/17 04:44:36;;;;;;;5.73;5.43;;;3.90;99.90;;;;;;6281038;28;20316;-54
2022/04/17 04:47:39;;;;;;;5.40;5.20;;;4.10;99.90;;;;;;6274955;28;20760;-55
2022/04/17 04:50:42;;;;;;;5.43;5.23;;;3.90;99.90;;;;;;6280598;28;20785;-56
2022/04/17 04:53:45;;;;;;;5.80;5.50;;;4.20;99.90;;;;;;6280662;28;20237;-57
2022/04/17 04:56:49;;;;;;;5.13;4.93;;;4.30;99.90;;;;;;6273637;28;20797;-56
2022/04/17 04:59:53;;;;;;;5.80;5.50;;;4.40;99.90;;;;;;6275066;28;20400;-57
2022/04/17 05:02:56;;;;;;;5.67;5.37;;;4.20;99.90;;;;;;6277865;28;20328;-58
2022/04/17 05:05:59;;;;;;;5.33;5.13;;;4.40;99.90;;;;;;6280771;28;20253;-55
2022/04/17 05:09:02;;;;;;;5.00;4.90;;;4.30;99.90;;;;;;6275509;28;20754;-57
2022/04/17 05:12:07;;;;;;;5.00;4.80;;;4.60;99.90;;;;;;6280474;28;20387;-57
2022/04/17 05:15:11;;;;;;;5.53;5.33;;;4.50;99.90;;;;;;6280534;28;20322;-56
2022/04/17 05:18:14;;;;;;;5.07;4.90;;;4.90;99.90;;;;;;6272147;28;20233;-57
2022/04/17 05:21:20;;;;;;;5.70;5.40;;;4.80;99.90;;;;;;6275320;28;20290;-56
2022/04/17 05:24:22;;;;;;;5.97;5.67;;;4.80;99.90;;;;;;6282967;28;20241;-57
2022/04/17 05:27:27;;;;;;;6.77;6.37;;;4.80;99.90;;;;;;6285117;28;20291;-56
2022/04/17 05:30:30;;;;;;;5.23;5.03;;;4.80;99.90;;;;;;6284963;28;20304;-55
2022/04/17 05:33:33;;;;;;;6.70;6.30;;;5.00;99.90;;;;;;6284937;28;20710;-57
2022/04/17 05:36:36;;;;;;;5.83;5.50;;;5.30;99.90;;;;;;6283862;28;20693;-56
2022/04/17 05:39:38;;;;;;;6.30;5.80;;;5.30;99.90;;;;;;6281231;28;20399;-57
2022/04/17 05:42:43;;;;;;;6.27;5.87;;;5.50;99.90;;;;;;6281803;28;20260;-56
2022/04/17 05:45:46;;;;;;;6.40;6.07;;;5.50;99.90;;;;;;6280444;28;20260;-60
2022/04/17 05:48:49;;;;;;;6.63;6.23;;;5.70;99.90;;;;;;6281751;28;20279;-57
2022/04/17 05:51:53;;;;;;;6.10;5.80;;;5.70;99.90;;;;;;6285568;28;20229;-56
2022/04/17 05:54:57;;;;;;;6.63;6.33;;;5.70;99.90;;;;;;6284468;28;20374;-57
2022/04/17 05:58:01;;;;;;;7.30;6.60;;;5.90;99.90;;;;;;6287969;28;20400;-58
2022/04/17 06:01:04;;;;;;;6.27;5.97;;;6.30;99.90;;;;;;6282999;28;20283;-55
2022/04/17 06:04:07;;;;;;;7.53;6.90;;;6.30;99.90;;;;;;6284704;28;20317;-56
2022/04/17 06:07:10;;;;;;;6.33;5.83;;;6.70;99.90;;;;;;6284228;28;20900;-57
2022/04/17 06:10:14;;;;;;;6.50;6.00;;;6.50;99.90;;;;;;6286462;28;20933;-56
2022/04/17 06:13:18;;;;;;;6.10;5.80;;;6.70;99.90;;;;;;6278987;28;20324;-58
2022/04/17 06:16:21;;;;;;;6.67;6.27;;;7.00;99.90;;;;;;6284818;28;20394;-57
2022/04/17 06:19:25;;;;;;;6.03;5.73;;;7.30;99.90;;;;;;6289079;28;20229;-56
2022/04/17 06:22:28;;;;;;;6.40;6.10;;;7.60;99.90;;;;;;6284997;28;20386;-57
2022/04/17 06:25:31;;;;;;;5.83;5.60;;;7.90;99.90;;;;;;6271117;28;20308;-57
2022/04/17 06:28:35;;;;;;;6.90;6.40;;;8.20;99.90;;;;;;6283531;28;20311;-57
2022/04/17 06:31:45;;;;;;;6.40;6.00;;;8.70;99.90;;;;;;6284656;28;20258;-56
2022/04/17 06:34:47;;;;;;;5.83;5.33;;;8.90;99.90;;;;;;6281524;28;20249;-57
2022/04/17 06:37:52;;;;;;;6.20;5.80;;;9.00;99.90;;;;;;6279856;28;20361;-56
2022/04/17 06:40:55;;;;;;;5.90;5.60;;;9.10;99.90;;;;;;6281100;28;20907;-58
2022/04/17 06:43:59;;;;;;;5.83;5.43;;;9.30;99.90;;;;;;6279407;28;20765;-57
2022/04/17 06:47:02;;;;;;;5.20;4.90;;;9.30;99.90;;;;;;6284091;28;20229;-56
2022/04/17 06:50:06;;;;;;;5.33;5.10;;;9.50;99.90;;;;;;6283716;28;20234;-57
2022/04/17 06:53:09;;;;;;;4.80;4.70;;;9.70;99.90;;;;;;6281100;28;20467;-56
2022/04/17 06:56:15;;;;;;;5.43;3.80;;;9.80;99.90;;;;;;6283210;28;20249;-57
2022/04/17 06:59:19;;;;;;;4.37;4.17;;;9.80;99.90;;;;;;6277878;28;20780;-58
2022/04/17 07:02:22;;;;;;;4.07;3.97;;;9.90;99.90;;;;;;6276724;28;20368;-58
2022/04/17 07:05:25;;;;;;;4.20;3.90;;;9.90;99.90;;;;;;6279638;28;20237;-57
2022/04/17 07:08:28;;;;;;;4.30;4.13;;;10.00;99.90;;;;;;6280095;28;20253;-58
2022/04/17 07:11:31;;;;;;;4.27;4.00;;;10.00;99.90;;;;;;6281857;28;20729;-58
2022/04/17 07:14:36;;;;;;;4.27;4.07;;;10.20;99.90;;;;;;6287925;28;20232;-57
2022/04/17 07:17:40;;;;;;;4.33;4.03;;;10.20;99.90;;;;;;6282820;28;20312;-57
2022/04/17 07:20:43;;;;;;;3.93;3.83;;;10.20;99.90;;;;;;6281854;28;20323;-58
2022/04/17 07:23:47;;;;;;;3.77;3.63;;;10.30;99.90;;;;;;6282288;28;20229;-58
2022/04/17 07:26:53;;;;;;;3.93;3.83;;;10.20;99.90;;;;;;6283020;28;20257;-56
2022/04/17 07:29:57;;;;;;;4.43;4.23;;;10.30;99.90;;;;;;6280817;28;20312;-56
2022/04/17 07:33:01;;;;;;;3.60;3.50;;;10.40;99.90;;;;;;6283605;28;20303;-57
2022/04/17 07:36:04;;;;;;;4.00;3.90;;;10.60;99.90;;;;;;6279795;28;20234;-57
2022/04/17 07:39:07;;;;;;;3.80;3.57;;;10.70;99.90;;;;;;6279487;28;20736;-57
2022/04/17 07:42:10;;;;;;;3.90;3.80;;;10.80;99.90;;;;;;6281724;28;20593;-57
2022/04/17 07:45:15;;;;;;;3.93;3.83;;;10.90;99.90;;;;;;6281018;28;20335;-56
2022/04/17 07:48:19;;;;;;;3.90;3.70;;;11.00;99.90;;;;;;6274241;28;20291;-58
2022/04/17 07:51:21;;;;;;;4.10;3.90;;;11.00;99.90;;;;;;6282523;28;20448;-57
2022/04/17 07:54:24;;;;;;;4.07;3.97;;;11.10;99.90;;;;;;6280726;28;20291;-58
2022/04/17 07:57:27;;;;;;;3.93;3.80;;;11.10;99.90;;;;;;6282658;28;20244;-56
2022/04/17 08:00:42;;;;;;;4.10;3.87;;;11.20;99.90;;;;;;6280476;28;20243;-57
2022/04/17 08:03:49;;;;;;;3.83;3.73;;;11.30;99.90;;;;;;6281152;28;20222;-58
2022/04/17 08:06:55;;;;;;;4.07;3.87;;;11.40;99.90;;;;;;6275484;28;20730;-57
2022/04/17 08:09:58;;;;;;;3.70;3.60;;;11.60;99.90;;;;;;6286877;28;20225;-57
2022/04/17 08:13:01;;;;;;;3.83;3.73;;;11.70;99.90;;;;;;6280670;28;20340;-57
2022/04/17 08:16:08;;;;;;;3.83;3.63;;;11.90;99.90;;;;;;6282292;28;20244;-57
2022/04/17 08:19:16;;;;;;;4.07;3.97;;;11.80;99.90;;;;;;6281721;28;20229;-57
2022/04/17 08:22:19;;;;;;;4.13;3.93;;;11.80;99.90;;;;;;6280840;28;20329;-57
2022/04/17 08:25:21;;;;;;;4.03;3.83;;;11.90;99.90;;;;;;6281701;28;20746;-57
2022/04/17 08:28:24;;;;;;;3.93;3.80;;;12.00;99.90;;;;;;6281186;28;20241;-57
2022/04/17 08:31:28;;;;;;;4.57;4.20;;;12.10;99.90;;;;;;6281088;28;20400;-58
2022/04/17 08:34:31;;;;;;;4.90;4.60;;;12.30;99.90;;;;;;6276678;28;20225;-56
2022/04/17 08:37:34;;;;;;;4.40;4.17;;;12.40;99.90;;;;;;6282347;28;20745;-58
2022/04/17 08:40:39;;;;;;;4.57;4.30;;;12.70;99.90;;;;;;6279623;28;20318;-59
2022/04/17 08:43:44;;;;;;;4.53;4.33;;;12.90;99.90;;;;;;6276088;28;20616;-58
2022/04/17 08:46:48;;;;;;;4.70;4.50;;;13.00;99.90;;;;;;6284847;28;20229;-57
2022/04/17 08:49:53;;;;;;;5.50;4.10;;;12.90;99.90;;;;;;6281324;28;20394;-57
2022/04/17 08:52:59;;;;;;;5.23;4.93;;;12.90;99.90;;;;;;6280690;28;20259;-57
2022/04/17 08:56:02;;;;;;;5.20;4.80;;;12.90;99.90;;;;;;6280995;28;20312;-57
2022/04/17 08:59:06;;;;;;;4.90;4.50;;;12.90;99.90;;;;;;6283743;28;20229;-55
2022/04/17 09:02:11;;;;;;;4.70;4.30;;;13.00;99.90;;;;;;6285488;28;20288;-57
2022/04/17 09:05:16;;;;;;;4.80;4.60;;;13.10;99.90;;;;;;6285016;28;20709;-57
2022/04/17 09:08:21;;;;;;;4.60;4.40;;;13.00;99.90;;;;;;6285442;28;20283;-57
2022/04/17 09:11:26;;;;;;;5.10;4.80;;;13.00;99.90;;;;;;6286423;28;20310;-57
2022/04/17 09:14:29;;;;;;;5.57;5.13;;;13.00;99.90;;;;;;6280535;28;20629;-58
2022/04/17 09:17:34;;;;;;;5.23;4.90;;;13.10;99.90;;;;;;6285822;28;20717;-58
2022/04/17 09:20:37;;;;;;;5.10;4.67;;;13.20;99.90;;;;;;6285728;28;20320;-58
2022/04/17 09:23:40;;;;;;;4.33;4.03;;;13.40;99.90;;;;;;6284752;28;20604;-58
2022/04/17 09:27:01;;;;;;;4.70;4.37;;;13.50;99.90;;;;;;6285888;28;20763;-57
2022/04/17 09:30:25;;;;;;;4.17;4.00;;;13.70;99.90;;;;;;6282466;28;20608;-57
2022/04/17 09:33:37;;;;;;;5.03;4.63;;;13.80;99.90;;;;;;6283782;28;20632;-57
2022/04/17 09:36:40;;;;;;;4.20;4.00;;;14.10;99.90;;;;;;6285626;28;20602;-66
2022/04/17 09:39:44;;;;;;;4.90;4.60;;;14.30;99.90;;;;;;6284740;28;20529;-58
2022/04/17 09:42:48;;;;;;;4.37;4.17;;;14.40;99.90;;;;;;6288791;28;20352;-56
2022/04/17 09:45:59;;;;;;;4.00;3.80;;;14.40;99.90;;;;;;6284670;28;20251;-57
2022/04/17 09:49:05;;;;;;;3.87;3.67;;;14.40;99.90;;;;;;6286738;28;20241;-58
2022/04/17 09:52:09;;;;;;;4.23;4.00;;;14.30;99.90;;;;;;6285584;28;20729;-57
2022/04/17 09:55:13;;;;;;;4.23;4.00;;;14.50;99.90;;;;;;6285288;28;20257;-57
2022/04/17 09:58:21;;;;;;;5.43;4.43;;;14.50;99.90;;;;;;6283369;28;20556;-58
2022/04/17 10:01:25;;;;;;;4.47;4.17;;;14.50;99.90;;;;;;6273141;28;20309;-56
2022/04/17 10:04:29;;;;;;;3.93;3.70;;;14.60;99.90;;;;;;6286297;28;20403;-57
2022/04/17 10:07:33;;;;;;;3.90;3.60;;;14.50;99.90;;;;;;6284950;28;20472;-56
2022/04/17 10:10:35;;;;;;;4.23;3.93;;;14.60;99.90;;;;;;6278905;28;20308;-57
2022/04/17 10:13:39;;;;;;;3.27;3.17;;;14.50;99.90;;;;;;6285650;28;20270;-58
2022/04/17 10:16:43;;;;;;;4.30;3.90;;;14.50;99.90;;;;;;6285350;28;20229;-57
2022/04/17 10:19:49;;;;;;;4.03;3.63;;;14.50;99.90;;;;;;6273851;28;20229;-58
2022/04/17 10:22:57;;;;;;;3.93;3.67;;;14.50;99.90;;;;;;6284252;28;20275;-57
2022/04/17 10:26:04;;;;;;;4.03;3.73;;;14.40;99.90;;;;;;6285110;28;20233;-58
2022/04/17 10:29:12;;;;;;;3.73;3.43;;;14.70;99.90;;;;;;6281914;28;20885;-58
2022/04/17 10:32:28;;;;;;;3.50;3.30;;;14.80;99.90;;;;;;6285338;28;20392;-58
2022/04/17 10:35:41;;;;;;;3.40;3.27;;;14.80;99.90;;;;;;6278278;28;20402;-56
2022/04/17 10:38:46;;;;;;;3.80;3.60;;;14.90;99.90;;;;;;6284944;28;20236;-57
2022/04/17 10:41:49;;;;;;;3.53;3.37;;;15.00;99.90;;;;;;6283884;28;20761;-57
2022/04/17 10:45:02;;;;;;;3.50;3.30;;;14.90;99.90;;;;;;6284294;28;20302;-57
2022/04/17 10:48:10;;;;;;;3.50;3.40;;;15.00;99.90;;;;;;6278461;28;20772;-57
2022/04/17 10:51:16;;;;;;;3.23;3.13;;;15.00;99.90;;;;;;6284191;28;20718;-57
2022/04/17 10:54:19;;;;;;;3.80;3.47;;;15.10;99.90;;;;;;6282912;28;20308;-58
2022/04/17 10:57:27;;;;;;;3.17;3.07;;;15.30;99.90;;;;;;6279634;28;20328;-57
2022/04/17 11:00:36;;;;;;;3.30;3.10;;;15.50;99.90;;;;;;6283539;28;20332;-58
2022/04/17 11:03:54;;;;;;;3.40;3.30;;;15.50;99.90;;;;;;6276046;28;20375;-57
2022/04/17 11:07:36;;;;;;;3.40;3.20;;;15.40;99.90;;;;;;6283524;28;20805;-57
2022/04/17 11:10:43;;;;;;;3.47;3.30;;;15.40;99.90;;;;;;6253226;28;20296;-58
2022/04/17 11:14:05;;;;;;;3.57;3.27;;;15.50;99.90;;;;;;6250801;28;20766;-58
2022/04/17 11:17:09;;;;;;;2.73;2.70;;;15.70;99.90;;;;;;6258777;28;20606;-58
2022/04/17 11:20:14;;;;;;;3.27;3.17;;;15.90;99.90;;;;;;6258186;28;20719;-57
2022/04/17 11:23:57;;;;;;;2.97;2.87;;;16.00;99.90;;;;;;6258206;28;20275;-59
2022/04/17 11:27:11;;;;;;;2.57;2.57;;;16.20;99.90;;;;;;6258916;28;20442;-58
2022/04/17 11:30:30;;;;;;;3.20;2.90;;;16.10;99.90;;;;;;6257626;28;20725;-57
2022/04/17 11:33:33;;;;;;;2.57;2.47;;;16.10;99.90;;;;;;6244715;28;20440;-57
2022/04/17 11:36:36;;;;;;;2.60;2.40;;;16.00;99.90;;;;;;6259868;28;20234;-58
2022/04/17 11:39:39;;;;;;;2.60;2.60;;;16.10;99.90;;;;;;6250991;28;20229;-58
2022/04/17 11:42:45;;;;;;;2.60;2.53;;;16.10;99.90;;;;;;6258763;28;20380;-58
2022/04/17 11:45:48;;;;;;;2.87;2.70;;;16.20;99.90;;;;;;6269354;28;20256;-58
2022/04/17 11:48:54;;;;;;;2.40;2.40;;;16.40;99.90;;;;;;6256658;28;20376;-57
2022/04/17 11:51:57;;;;;;;2.60;2.50;;;16.70;99.90;;;;;;6257799;28;20725;-59
2022/04/17 11:55:01;;;;;;;2.60;2.50;;;16.80;99.90;;;;;;6257273;28;20309;-57
2022/04/17 11:58:10;;;;;;;2.83;2.63;;;16.80;99.90;;;;;;6255323;28;20336;-57
2022/04/17 12:01:23;;;;;;;3.00;2.80;;;16.90;99.90;;;;;;6257906;28;20366;-58
2022/04/17 12:04:26;;;;;;;2.60;2.50;;;16.80;99.90;;;;;;6257425;28;20329;-56
2022/04/17 12:07:29;;;;;;;2.73;2.63;;;16.80;99.90;;;;;;6253562;28;20772;-59
2022/04/17 12:10:32;;;;;;;2.70;2.60;;;16.80;99.90;;;;;;6255544;28;20255;-57
2022/04/17 12:13:36;;;;;;;3.00;2.80;;;16.80;99.90;;;;;;6258211;28;20384;-58
2022/04/17 12:16:51;;;;;;;2.70;2.60;;;16.70;99.90;;;;;;6256939;28;20797;-59
2022/04/17 12:19:53;;;;;;;2.50;2.50;;;16.80;99.90;;;;;;6260590;28;20388;-58
2022/04/17 12:22:56;;;;;;;2.60;2.60;;;16.70;99.90;;;;;;6257140;28;20241;-60
2022/04/17 12:26:00;;;;;;;3.27;3.07;;;16.70;99.90;;;;;;6257119;28;20868;-58
2022/04/17 12:29:05;;;;;;;2.47;2.27;;;16.70;99.90;;;;;;6263321;28;20417;-57
2022/04/17 12:32:14;;;;;;;2.50;2.50;;;16.80;99.90;;;;;;6260361;28;20720;-57
2022/04/17 12:35:25;;;;;;;3.57;3.27;;;17.10;99.90;;;;;;6261832;28;20330;-58
2022/04/17 12:38:28;;;;;;;3.10;2.90;;;17.20;99.90;;;;;;6264507;28;20234;-59
2022/04/17 12:41:40;;;;;;;2.70;2.70;;;17.10;99.90;;;;;;6263924;28;20317;-58
2022/04/17 12:44:47;;;;;;;3.00;2.87;;;17.00;99.90;;;;;;6262426;28;20245;-57
2022/04/17 12:48:01;;;;;;;3.00;2.90;;;17.10;99.90;;;;;;6260360;28;20234;-58
2022/04/17 12:51:05;;;;;;;2.90;2.80;;;17.00;99.90;;;;;;6266206;28;20778;-56
2022/04/17 12:54:10;;;;;;;2.80;2.70;;;16.90;99.90;;;;;;6261454;28;20481;-57
2022/04/17 12:57:13;;;;;;;2.40;2.37;;;16.70;99.90;;;;;;6258275;28;20811;-57
2022/04/17 13:00:18;;;;;;;2.77;2.77;;;16.60;99.90;;;;;;6260424;28;20529;-58
2022/04/17 13:03:22;;;;;;;2.93;2.80;;;16.60;99.90;;;;;;6262984;28;20770;-57
2022/04/17 13:06:25;;;;;;;3.37;3.00;;;16.80;99.90;;;;;;6260592;28;20343;-57
2022/04/17 13:09:28;;;;;;;2.67;2.47;;;16.90;99.90;;;;;;6262226;28;20252;-56
2022/04/17 13:12:35;;;;;;;2.97;2.73;;;16.90;99.90;;;;;;6264786;28;20242;-57
2022/04/17 13:15:39;;;;;;;3.17;3.07;;;16.90;99.90;;;;;;6261320;28;20276;-57
2022/04/17 13:18:42;;;;;;;3.33;3.13;;;16.80;99.90;;;;;;6260523;28;20251;-58
2022/04/17 13:22:05;;;;;;;2.90;2.90;;;16.70;99.90;;;;;;6261747;28;20230;-57
2022/04/17 13:25:10;;;;;;;2.83;2.70;;;16.80;99.90;;;;;;6261014;28;20718;-57
2022/04/17 13:28:12;;;;;;;2.57;2.57;;;16.80;99.90;;;;;;6269853;28;20242;-56
2022/04/17 13:31:17;;;;;;;2.70;2.60;;;16.80;99.90;;;;;;6257354;28;20250;-56
2022/04/17 13:34:20;;;;;;;3.10;2.90;;;16.90;99.90;;;;;;6261568;28;20233;-57
2022/04/17 13:40:44;;;;;;;3.10;3.00;;;17.10;99.90;;;;;;6256604;28;20763;-57
2022/04/17 13:43:46;;;;;;;3.47;3.20;;;17.10;99.90;;;;;;6281602;28;20783;-57
2022/04/17 13:46:50;;;;;;;3.50;3.30;;;17.00;99.90;;;;;;6280523;28;20236;-57
2022/04/17 13:49:53;;;;;;;3.40;3.13;;;17.10;99.90;;;;;;6285045;28;20344;-57
2022/04/17 13:52:57;;;;;;;3.43;3.33;;;17.10;99.90;;;;;;6285844;28;20229;-59
2022/04/17 13:56:00;;;;;;;3.50;3.40;;;17.00;99.90;;;;;;6277043;28;20316;-57
2022/04/17 13:59:05;;;;;;;3.97;3.63;;;17.00;99.90;;;;;;6285628;28;20366;-58
2022/04/17 14:02:09;;;;;;;3.33;3.23;;;16.90;99.90;;;;;;6284934;28;20775;-57
2022/04/17 14:05:16;;;;;;;3.83;3.70;;;17.00;99.90;;;;;;6258911;28;20249;-58
2022/04/17 14:08:19;;;;;;;3.50;3.40;;;17.10;99.90;;;;;;6260928;28;20234;-56
2022/04/17 14:11:22;;;;;;;3.60;3.50;;;17.00;99.90;;;;;;6252262;28;20257;-58
2022/04/17 14:14:24;;;;;;;3.30;3.20;;;17.10;99.90;;;;;;6257839;28;20244;-59
2022/04/17 14:17:29;;;;;;;3.77;3.57;;;17.00;99.90;;;;;;6259808;28;20376;-58
2022/04/17 14:20:31;;;;;;;3.60;3.50;;;17.00;99.90;;;;;;6264423;28;20725;-58
2022/04/17 14:23:34;;;;;;;3.80;3.70;;;17.00;99.90;;;;;;6259224;28;20376;-58
2022/04/17 14:26:37;;;;;;;3.60;3.50;;;17.00;99.90;;;;;;6265987;28;20232;-57
2022/04/17 14:29:40;;;;;;;3.67;3.57;;;17.00;99.90;;;;;;6259159;28;20253;-56
2022/04/17 14:32:44;;;;;;;3.90;3.43;;;17.10;99.90;;;;;;6259935;28;20376;-57
2022/04/17 14:35:49;;;;;;;3.30;3.20;;;17.00;99.90;;;;;;6256576;28;20238;-56
2022/04/17 14:38:51;;;;;;;3.47;3.37;;;17.10;99.90;;;;;;6258757;28;20222;-57
2022/04/17 14:41:54;;;;;;;4.67;4.43;;;17.10;99.90;;;;;;6264065;28;20309;-56
2022/04/17 14:44:58;;;;;;;3.73;3.57;;;17.20;99.90;;;;;;6259159;28;20325;-58
2022/04/17 14:48:02;;;;;;;3.93;3.73;;;17.30;99.90;;;;;;6259555;28;20238;-57
2022/04/17 14:51:05;;;;;;;4.20;4.10;;;17.40;99.90;;;;;;6259461;28;20340;-57
2022/04/17 14:54:13;;;;;;;4.13;3.93;;;17.50;99.90;;;;;;6259896;28;20224;-57
2022/04/17 14:57:17;;;;;;;4.17;3.97;;;17.50;99.90;;;;;;6260222;28;20245;-57
2022/04/17 15:00:20;;;;;;;4.37;4.17;;;17.50;99.90;;;;;;6259384;28;20328;-57
2022/04/17 15:03:26;;;;;;;4.20;4.00;;;17.50;99.90;;;;;;6253241;28;20876;-57
2022/04/17 15:06:29;;;;;;;4.10;3.93;;;17.50;99.90;;;;;;6257428;28;20244;-57
2022/04/17 15:09:31;;;;;;;4.17;3.97;;;17.40;99.90;;;;;;6259942;28;20324;-57
2022/04/17 15:12:34;;;;;;;4.73;4.43;;;17.40;99.90;;;;;;6260864;28;20364;-57
2022/04/17 15:15:37;;;;;;;3.83;3.73;;;17.50;99.90;;;;;;6258803;28;20268;-57
2022/04/17 15:18:41;;;;;;;4.10;3.90;;;17.60;99.90;;;;;;6258524;28;20284;-56
2022/04/17 15:21:44;;;;;;;4.03;3.93;;;17.70;99.90;;;;;;6258611;28;20600;-57
2022/04/17 15:24:46;;;;;;;4.60;4.30;;;17.60;99.90;;;;;;6253576;28;20579;-57
2022/04/17 15:27:49;;;;;;;3.57;3.47;;;17.40;99.90;;;;;;6272843;28;20275;-57
2022/04/17 15:30:52;;;;;;;4.57;4.37;;;17.40;99.90;;;;;;6255097;28;20320;-58
2022/04/17 15:33:56;;;;;;;4.47;4.17;;;17.40;99.90;;;;;;6258971;28;20226;-56
2022/04/17 15:37:00;;;;;;;4.40;4.20;;;17.30;99.90;;;;;;6259500;28;20372;-57
2022/04/17 15:40:04;;;;;;;4.00;3.83;;;17.20;99.90;;;;;;6257796;28;20264;-57
2022/04/17 15:49:46;;;;;;;4.10;3.90;;;17.00;99.90;;;;;;6260878;28;20500;-56
2022/04/17 15:52:49;;;;;;;4.07;3.87;;;16.70;99.90;;;;;;6258420;28;20230;-57
2022/04/17 15:55:51;;;;;;;4.47;4.27;;;16.60;99.90;;;;;;6258845;28;20321;-57
2022/04/17 15:58:54;;;;;;;4.73;4.53;;;16.50;99.90;;;;;;6255978;28;20305;-56
2022/04/17 16:01:57;;;;;;;4.47;4.27;;;16.40;99.90;;;;;;6261567;28;20267;-55
2022/04/17 16:05:03;;;;;;;5.20;5.00;;;16.30;99.90;;;;;;6257262;28;20241;-57
2022/04/17 16:08:06;;;;;;;4.50;4.40;;;16.10;99.90;;;;;;6262450;28;20772;-57
2022/04/17 16:11:09;;;;;;;5.20;4.90;;;16.00;99.90;;;;;;6262020;28;20720;-56
2022/04/17 16:14:11;;;;;;;5.33;5.13;;;16.00;99.90;;;;;;6255330;28;20315;-55
2022/04/17 16:17:15;;;;;;;5.13;4.83;;;15.90;99.90;;;;;;6261134;28;20487;-57
2022/04/17 16:20:20;;;;;;;5.33;5.00;;;15.80;99.90;;;;;;6258016;28;20324;-56
2022/04/17 16:23:22;;;;;;;5.17;4.97;;;15.70;99.90;;;;;;6242533;28;20230;-56
2022/04/17 16:26:25;;;;;;;5.57;5.17;;;15.50;99.90;;;;;;6257493;28;20241;-58